»·PEaware :: SKW3132 KPHX-KMFR

SKW3132 :: KPHX-KMFR

FLIGHT INFORMATION

Flight Status: Arrived
Operator:
SkyWest Airlines
More flights by this operator :: More flights under this callsign
Pilot: Anonymous 11975 (11975)
Aircraft: CANADAIR CL-600 CRJ-700
(CRJ7)
More flights by this aircraft type
Origin: KPHX Phoenix Sky Harbor Intl
United States
Destination: KMFR Rogue Valley Intl-Medford
United States
More flights between these airports :: More routes between these airports
Route: ZEPER2 RRSTA DOVEE Q15 LOMIA SAMIE
File this flight plan on PilotEdge
Remarks:
Altitude:
(Current/Filed)
36,000ft
Speed:
(Current/Filed)
470kts
Departed: 31-Aug-22 08:33 PM
Arrived: 31-Aug-22 10:30 PM
Distance/Time
Traveled:
742nm/1:57
Distance/Time
To Go:
Arrived

Flight Plot

Page will automatically refresh every two minutes.

Flight plan parsing failed; only flown route is shown


Map Options




Map Legend


Flown Route
Filed Route
Departure Airport
Arrival Airport
Navaid (VOR, NDB)
Fix

Horizontal Profiles

Position Reports

Time Latitude Longitude Heading Altitude Ground
Speed
31-Aug-22 20:06 33.436986 -111.993647 270 1139ft 0kts
31-Aug-22 20:07 33.436986 -111.993647 270 1139ft 0kts
31-Aug-22 20:08 33.436986 -111.993647 270 1139ft 0kts
31-Aug-22 20:09 33.436986 -111.993647 270 1139ft 0kts
31-Aug-22 20:10 33.436986 -111.993647 270 1139ft 0kts
31-Aug-22 20:11 33.436986 -111.993647 270 1121ft 0kts
31-Aug-22 20:12 33.436986 -111.993647 270 1121ft 0kts
31-Aug-22 20:13 33.436986 -111.993647 270 1121ft 0kts
31-Aug-22 20:14 33.436986 -111.993647 270 1121ft 0kts
31-Aug-22 20:15 33.436986 -111.993647 270 1121ft 0kts
31-Aug-22 20:16 33.436986 -111.993647 270 1121ft 0kts
31-Aug-22 20:17 33.436986 -111.993647 270 1121ft 0kts
31-Aug-22 20:18 33.436986 -111.993647 270 1121ft 0kts
31-Aug-22 20:19 33.436986 -111.993647 270 1121ft 0kts
31-Aug-22 20:20 33.437132 -111.993115 180 1142ft 1kts
31-Aug-22 20:21 33.437144 -111.993115 179 1141ft 0kts
31-Aug-22 20:22 33.437144 -111.993115 179 1141ft 0kts
31-Aug-22 20:23 33.436921 -111.992953 118 1143ft 4kts
31-Aug-22 20:24 33.439035 -111.993522 270 1142ft 17kts
31-Aug-22 20:25 33.439043 -112.000442 270 1136ft 22kts
31-Aug-22 20:26 33.436854 -112.003815 180 1136ft 18kts
31-Aug-22 20:27 33.432877 -112.005508 270 1135ft 18kts
31-Aug-22 20:28 33.432884 -112.012769 269 1117ft 25kts
31-Aug-22 20:28 33.432886 -112.019480 270 1121ft 21kts
31-Aug-22 20:29 33.432885 -112.026324 268 1116ft 20kts
31-Aug-22 20:31 33.432100 -112.026985 180 1118ft 0kts
31-Aug-22 20:32 33.431057 -112.026648 87 1114ft 3kts
31-Aug-22 20:33 33.431602 -111.989991 88 1699ft 181kts
31-Aug-22 20:33 33.433664 -111.936335 87 3499ft 218kts
31-Aug-22 20:34 33.446362 -111.856655 40 5533ft 276kts
31-Aug-22 20:35 33.521408 -111.842633 3 8554ft 281kts
31-Aug-22 20:36 33.600582 -111.838734 3 9028ft 284kts
31-Aug-22 20:38 33.694344 -111.841623 352 9377ft 317kts
31-Aug-22 20:38 33.757397 -111.889620 310 10941ft 359kts
31-Aug-22 20:39 33.818497 -111.988549 308 14147ft 379kts
31-Aug-22 20:40 33.881601 -112.093503 308 17301ft 393kts
31-Aug-22 20:41 33.946409 -112.200345 307 20264ft 398kts
31-Aug-22 20:42 34.012458 -112.309063 307 22340ft 408kts
31-Aug-22 20:43 34.095446 -112.404256 323 24327ft 419kts
31-Aug-22 20:44 34.186985 -112.493829 320 26063ft 430kts
31-Aug-22 20:45 34.279938 -112.588059 319 27659ft 441kts
31-Aug-22 20:46 34.375011 -112.684681 319 29124ft 451kts
31-Aug-22 20:47 34.472084 -112.783410 319 30318ft 459kts
31-Aug-22 20:48 34.570446 -112.883499 319 31262ft 464kts
31-Aug-22 20:49 34.668015 -112.983258 318 32590ft 455kts
31-Aug-22 20:50 34.764265 -113.081880 316 33582ft 453kts
31-Aug-22 20:51 34.822463 -113.213271 279 34319ft 447kts
31-Aug-22 20:52 34.867723 -113.352873 297 34995ft 446kts
31-Aug-22 20:53 34.923760 -113.487042 294 35620ft 443kts
31-Aug-22 20:54 34.977860 -113.622102 294 35867ft 449kts
31-Aug-22 20:55 35.033677 -113.760171 295 35858ft 457kts
31-Aug-22 20:56 35.089851 -113.899695 294 35835ft 457kts
31-Aug-22 20:57 35.145739 -114.039230 295 35826ft 457kts
31-Aug-22 20:58 35.201860 -114.178918 294 35956ft 458kts
31-Aug-22 20:59 35.257611 -114.319189 294 35832ft 458kts
31-Aug-22 21:00 35.312851 -114.457792 297 35763ft 450kts
31-Aug-22 21:01 35.367104 -114.595500 297 35873ft 450kts
31-Aug-22 21:02 35.422104 -114.735399 294 35796ft 458kts
31-Aug-22 21:03 35.487122 -114.869637 306 35813ft 460kts
31-Aug-22 21:04 35.565187 -114.994178 305 35833ft 460kts
31-Aug-22 21:05 35.640751 -115.120913 305 35850ft 459kts
31-Aug-22 21:06 35.716466 -115.247487 305 35868ft 459kts
31-Aug-22 21:07 35.791823 -115.373500 305 35879ft 458kts
31-Aug-22 21:08 35.867037 -115.500185 305 35894ft 457kts
31-Aug-22 21:09 35.942039 -115.626994 304 35906ft 457kts
31-Aug-22 21:10 36.016777 -115.754160 304 35899ft 457kts
31-Aug-22 21:11 36.091089 -115.881055 304 35883ft 457kts
31-Aug-22 21:12 36.165527 -116.008605 304 35861ft 457kts
31-Aug-22 21:13 36.240309 -116.135982 304 35843ft 456kts
31-Aug-22 21:14 36.318795 -116.259362 313 35828ft 457kts
31-Aug-22 21:15 36.411867 -116.367191 314 35825ft 457kts
31-Aug-22 21:16 36.502614 -116.477038 313 35820ft 456kts
31-Aug-22 21:17 36.593406 -116.587478 313 35825ft 456kts
31-Aug-22 21:18 36.695914 -116.681194 325 35844ft 459kts
31-Aug-22 21:19 36.802782 -116.768435 323 35865ft 458kts
31-Aug-22 21:20 36.908542 -116.856644 323 35892ft 458kts
31-Aug-22 21:21 37.014467 -116.945613 323 35912ft 458kts
31-Aug-22 21:22 37.120166 -117.035049 323 35933ft 458kts
31-Aug-22 21:23 37.226167 -117.124021 324 35945ft 458kts
31-Aug-22 21:24 37.330070 -117.215554 319 35960ft 456kts
31-Aug-22 21:25 37.430437 -117.313279 319 35977ft 456kts
31-Aug-22 21:26 37.530866 -117.410849 320 35964ft 456kts
31-Aug-22 21:27 37.630742 -117.507572 319 35953ft 455kts
31-Aug-22 21:28 37.730661 -117.606125 319 35945ft 456kts
31-Aug-22 21:29 37.831365 -117.704589 319 35929ft 456kts
31-Aug-22 21:30 37.931416 -117.803565 319 35937ft 456kts
31-Aug-22 21:31 38.030795 -117.902197 319 35951ft 457kts
31-Aug-22 21:32 38.131431 -118.002067 319 35950ft 457kts
31-Aug-22 21:33 38.231566 -118.102008 319 35969ft 458kts
31-Aug-22 21:34 38.331770 -118.202371 319 35974ft 458kts
31-Aug-22 21:35 38.432044 -118.302982 319 36029ft 459kts
31-Aug-22 21:36 38.532293 -118.403998 319 36089ft 459kts
31-Aug-22 21:37 38.632377 -118.504603 319 36132ft 459kts
31-Aug-22 21:38 38.728435 -118.602002 319 36016ft 459kts
31-Aug-22 21:39 38.826673 -118.702300 318 36016ft 458kts
31-Aug-22 21:40 38.926335 -118.804322 319 36018ft 457kts
31-Aug-22 21:41 39.025262 -118.905897 319 36003ft 456kts
31-Aug-22 21:42 39.124100 -119.007914 319 36020ft 454kts
31-Aug-22 21:43 39.222709 -119.109731 318 36015ft 453kts
31-Aug-22 21:44 39.320072 -119.213038 318 36013ft 452kts
31-Aug-22 21:45 39.416909 -119.316698 318 36016ft 451kts
31-Aug-22 21:46 39.513077 -119.419877 318 36085ft 450kts
31-Aug-22 21:47 39.609160 -119.523565 318 36114ft 449kts
31-Aug-22 21:48 39.705103 -119.627439 318 36174ft 449kts
31-Aug-22 21:49 39.800568 -119.731890 318 36186ft 448kts
31-Aug-22 21:50 39.896243 -119.835175 318 36145ft 448kts
31-Aug-22 21:51 39.991766 -119.939496 318 36054ft 448kts
31-Aug-22 21:52 40.086954 -120.044269 318 36019ft 447kts
31-Aug-22 21:53 40.181937 -120.149065 317 36034ft 447kts
31-Aug-22 21:54 40.276678 -120.254291 317 36096ft 446kts
31-Aug-22 21:55 40.370979 -120.359922 317 36164ft 445kts
31-Aug-22 21:56 40.465103 -120.464762 317 36192ft 446kts
31-Aug-22 21:57 40.559377 -120.570380 316 36153ft 445kts
31-Aug-22 21:58 40.653303 -120.676691 316 36107ft 445kts
31-Aug-22 21:59 40.747553 -120.782643 316 36083ft 445kts
31-Aug-22 22:00 40.841510 -120.888225 316 36102ft 445kts
31-Aug-22 22:01 40.935100 -120.995243 315 36091ft 445kts
31-Aug-22 22:02 41.028771 -121.102212 315 36108ft 444kts
31-Aug-22 22:03 41.122787 -121.208765 315 36100ft 444kts
31-Aug-22 22:04 41.215905 -121.315984 314 36088ft 442kts
31-Aug-22 22:05 41.308921 -121.423404 314 36120ft 443kts
31-Aug-22 22:06 41.401067 -121.531357 313 36132ft 442kts
31-Aug-22 22:07 41.493937 -121.639367 314 34368ft 445kts
31-Aug-22 22:08 41.586749 -121.746332 313 32390ft 435kts
31-Aug-22 22:09 41.677578 -121.854369 313 30473ft 443kts
31-Aug-22 22:10 41.771485 -121.964257 314 28400ft 453kts
31-Aug-22 22:11 41.866240 -122.075855 313 26420ft 453kts
31-Aug-22 22:12 41.956677 -122.184848 313 24678ft 456kts
31-Aug-22 22:13 42.049970 -122.294300 314 22533ft 444kts
31-Aug-22 22:14 42.140619 -122.403746 313 20285ft 433kts
31-Aug-22 22:15 42.229546 -122.510489 314 18110ft 426kts
31-Aug-22 22:16 42.317310 -122.615610 313 15846ft 413kts
31-Aug-22 22:17 42.401008 -122.718584 314 13916ft 405kts
31-Aug-22 22:18 42.484229 -122.819099 314 11958ft 396kts
31-Aug-22 22:19 42.568086 -122.888741 345 10796ft 330kts
31-Aug-22 22:20 42.652337 -122.908194 348 9636ft 286kts
31-Aug-22 22:21 42.691899 -122.966541 235 8442ft 234kts
31-Aug-22 22:22 42.635046 -123.008239 182 7062ft 233kts
31-Aug-22 22:23 42.576494 -122.978844 160 5228ft 216kts
31-Aug-22 22:24 42.524611 -122.951769 159 4039ft 168kts
31-Aug-22 22:25 42.484095 -122.930537 159 3314ft 152kts
31-Aug-22 22:26 42.445660 -122.910280 158 2590ft 147kts
31-Aug-22 22:27 42.407436 -122.890282 159 1761ft 141kts
31-Aug-22 22:28 42.375091 -122.873366 159 1319ft 67kts
31-Aug-22 22:29 42.367029 -122.870286 264 1329ft 0kts
31-Aug-22 22:30 42.368507 -122.871520 338 1323ft 14kts
31-Aug-22 22:31 42.369031 -122.873341 245 1322ft 0kts
31-Aug-22 22:32 42.369031 -122.873341 245 1322ft 0kts
31-Aug-22 22:33 42.369031 -122.873341 245 1322ft 0kts
31-Aug-22 22:34 42.369031 -122.873341 245 1322ft 0kts
31-Aug-22 22:35 42.369031 -122.873341 245 1322ft 0kts
31-Aug-22 22:36 42.369031 -122.873341 245 1322ft 0kts
31-Aug-22 22:37 42.369031 -122.873341 245 1322ft 0kts
31-Aug-22 22:38 42.369031 -122.873341 245 1322ft 0kts
31-Aug-22 22:39 42.369031 -122.873341 245 1322ft 0kts
31-Aug-22 22:40 42.369031 -122.873341 245 1322ft 0kts
31-Aug-22 22:41 42.369031 -122.873341 245 1322ft 0kts
31-Aug-22 22:42 42.369031 -122.873341 245 1322ft 0kts
31-Aug-22 22:43 42.369031 -122.873341 245 1322ft 0kts
31-Aug-22 22:44 42.369031 -122.873341 245 1322ft 0kts

Navigation Log

Ident Type
Flight plan parsing failed, navigation log unavailable